createdAt,value
2019-02-26T00:00:32.034Z,74.71
2019-02-26T00:03:02.155Z,74.72
2019-02-26T00:05:30.287Z,74.88
2019-02-26T00:07:57.863Z,74.36
2019-02-26T00:10:26.800Z,74.72
2019-02-26T00:12:54.570Z,74.99
2019-02-26T00:15:21.271Z,75.04
2019-02-26T00:17:49.032Z,74.32
2019-02-26T00:20:19.609Z,73.94
2019-02-26T00:22:46.237Z,74.40
2019-02-26T00:25:15.432Z,74.05
2019-02-26T00:27:41.382Z,73.79
2019-02-26T00:30:11.404Z,73.58
2019-02-26T00:32:40.479Z,73.67
2019-02-26T00:35:07.735Z,73.62
2019-02-26T00:37:34.608Z,74.30
2019-02-26T00:40:10.471Z,74.39
2019-02-26T00:42:38.490Z,74.57
2019-02-26T00:45:09.839Z,73.85
2019-02-26T00:47:55.230Z,74.04
2019-02-26T00:50:21.821Z,73.77
2019-02-26T00:52:48.596Z,73.36
2019-02-26T00:55:15.284Z,73.91
2019-02-26T00:57:43.040Z,73.59
2019-02-26T01:00:14.151Z,73.26
2019-02-26T01:02:40.812Z,73.67
2019-02-26T01:05:08.787Z,73.83
2019-02-26T01:07:36.686Z,73.18
2019-02-26T01:10:08.097Z,73.15
2019-02-26T01:12:35.712Z,72.87
2019-02-26T01:15:09.493Z,72.92
2019-02-26T01:17:38.344Z,73.70
2019-02-26T01:20:10.868Z,72.98
2019-02-26T01:22:38.268Z,72.73
2019-02-26T01:25:10.118Z,72.60
2019-02-26T01:27:37.319Z,73.28
2019-02-26T01:30:09.486Z,72.86
2019-02-26T01:32:36.013Z,72.31
2019-02-26T01:35:06.018Z,73.09
2019-02-26T01:37:34.784Z,73.36
2019-02-26T01:40:01.822Z,72.53
2019-02-26T01:42:31.545Z,72.66
2019-02-26T01:44:58.455Z,71.74
2019-02-26T01:47:26.283Z,71.48
2019-02-26T01:49:53.671Z,71.78
2019-02-26T01:52:20.343Z,71.90
2019-02-26T01:54:46.939Z,71.63
2019-02-26T01:57:13.596Z,72.00
2019-02-26T01:59:40.183Z,71.77
2019-02-26T02:02:06.805Z,71.81
2019-02-26T02:04:34.196Z,72.27
2019-02-26T02:07:04.202Z,72.20
2019-02-26T02:09:31.002Z,72.13
2019-02-26T02:11:59.826Z,70.85
2019-02-26T02:14:26.506Z,70.22
2019-02-26T02:16:53.223Z,70.69
2019-02-26T02:19:22.280Z,70.52
2019-02-26T02:21:49.478Z,71.21
2019-02-26T02:24:17.570Z,70.79
2019-02-26T02:26:47.737Z,70.72
2019-02-26T02:29:14.999Z,70.76
2019-02-26T02:31:42.412Z,70.61
2019-02-26T02:34:09.119Z,71.25
2019-02-26T02:36:35.706Z,70.73
2019-02-26T02:39:10.352Z,70.43
2019-02-26T02:41:34.529Z,70.74
2019-02-26T02:44:01.272Z,70.29
2019-02-26T02:46:27.995Z,70.39
2019-02-26T02:48:54.592Z,71.31
2019-02-26T02:51:21.286Z,71.05
2019-02-26T02:53:50.388Z,70.78
2019-02-26T02:56:17.970Z,70.44
2019-02-26T02:58:46.914Z,71.08
2019-02-26T03:01:14.492Z,70.90
2019-02-26T03:03:41.942Z,70.46
2019-02-26T03:06:09.711Z,70.51
2019-02-26T03:08:36.994Z,70.33
2019-02-26T03:11:04.076Z,70.71
2019-02-26T03:13:33.899Z,71.36
2019-02-26T03:16:56.910Z,70.82
2019-02-26T03:19:23.705Z,71.36
2019-02-26T03:21:52.507Z,70.75
2019-02-26T03:24:18.788Z,71.20
2019-02-26T03:27:42.649Z,71.45
2019-02-26T03:30:20.207Z,71.45
2019-02-26T03:32:47.228Z,71.15
2019-02-26T03:35:15.908Z,71.14
2019-02-26T03:37:44.281Z,70.78
2019-02-26T03:40:12.947Z,71.11
2019-02-26T03:42:41.630Z,72.01
2019-02-26T03:45:13.462Z,71.99
2019-02-26T03:47:40.720Z,71.96
2019-02-26T03:50:12.220Z,72.44
2019-02-26T03:52:38.850Z,72.06
2019-02-26T03:55:09.450Z,72.10
2019-02-26T03:57:40.964Z,71.77
2019-02-26T04:00:11.358Z,72.24
2019-02-26T04:02:39.903Z,72.06
2019-02-26T04:05:11.552Z,71.39
2019-02-26T04:07:38.150Z,71.68
2019-02-26T04:10:06.744Z,72.66
2019-02-26T04:12:39.227Z,72.48
2019-02-26T04:15:08.469Z,72.66
2019-02-26T04:17:37.017Z,72.23
2019-02-26T04:21:05.598Z,71.95
2019-02-26T04:23:28.770Z,71.72
2019-02-26T04:26:01.771Z,72.29
2019-02-26T04:28:40.376Z,72.25
2019-02-26T04:31:11.773Z,72.66
2019-02-26T04:33:44.193Z,72.24
2019-02-26T04:36:17.491Z,71.54
2019-02-26T04:38:53.007Z,71.85
2019-02-26T04:41:19.868Z,72.66
2019-02-26T04:43:54.936Z,72.61
2019-02-26T04:46:28.876Z,72.49
2019-02-26T04:48:55.116Z,72.42
2019-02-26T04:51:21.935Z,73.13
2019-02-26T04:53:50.984Z,72.48
2019-02-26T04:56:17.088Z,72.41
2019-02-26T04:58:45.890Z,72.26
2019-02-26T05:01:18.858Z,72.79
2019-02-26T05:03:44.593Z,72.75
2019-02-26T05:06:11.139Z,72.74
2019-02-26T05:08:40.112Z,72.31
2019-02-26T05:11:06.264Z,73.02
2019-02-26T05:13:34.591Z,73.16
2019-02-26T05:16:01.489Z,73.55
2019-02-26T05:18:31.950Z,72.98
2019-02-26T05:20:59.300Z,73.37
2019-02-26T05:23:28.276Z,73.42
2019-02-26T05:25:59.848Z,73.34
2019-02-26T05:28:24.243Z,72.86
2019-02-26T05:30:51.377Z,72.41
2019-02-26T05:33:21.412Z,72.55
2019-02-26T05:35:49.019Z,72.76
2019-02-26T05:38:15.534Z,72.84
2019-02-26T05:40:42.739Z,72.68
2019-02-26T05:43:10.690Z,73.19
2019-02-26T05:45:37.266Z,73.49
2019-02-26T05:48:03.860Z,73.10
2019-02-26T05:50:34.677Z,72.74
2019-02-26T05:53:01.933Z,73.02
2019-02-26T05:55:29.393Z,72.97
2019-02-26T05:57:56.088Z,73.12
2019-02-26T06:00:26.272Z,72.50
2019-02-26T06:02:51.390Z,73.25
2019-02-26T06:05:20.391Z,73.69
2019-02-26T06:07:46.579Z,72.75
2019-02-26T06:10:13.292Z,73.60
2019-02-26T06:12:43.298Z,72.76
2019-02-26T06:15:08.829Z,73.06
2019-02-26T06:17:40.575Z,73.11
2019-02-26T06:20:11.023Z,71.99
2019-02-26T06:22:38.077Z,73.20
2019-02-26T06:25:09.598Z,72.71
2019-02-26T06:27:33.543Z,72.56
2019-02-26T06:30:56.680Z,73.89
2019-02-26T06:33:23.270Z,73.29
2019-02-26T06:35:49.947Z,72.19
2019-02-26T06:38:16.625Z,72.70
2019-02-26T06:40:47.159Z,73.11
2019-02-26T06:43:13.891Z,72.85
2019-02-26T06:45:43.070Z,72.03
2019-02-26T06:48:12.597Z,72.17
2019-02-26T06:50:38.769Z,72.77
2019-02-26T06:53:08.508Z,71.66
2019-02-26T06:55:34.595Z,71.51
2019-02-26T06:58:06.952Z,72.75
2019-02-26T07:00:33.504Z,72.36
2019-02-26T07:03:02.225Z,72.87
2019-02-26T07:05:28.664Z,72.52
2019-02-26T07:07:57.034Z,72.27
2019-02-26T07:10:26.242Z,72.26
2019-02-26T07:12:52.336Z,72.23
2019-02-26T07:15:18.986Z,71.73
2019-02-26T07:17:46.281Z,70.89
2019-02-26T07:20:13.628Z,70.78
2019-02-26T07:22:41.558Z,70.47
2019-02-26T07:25:12.689Z,70.25
2019-02-26T07:27:38.428Z,70.23
2019-02-26T07:30:10.549Z,69.92
2019-02-26T07:32:38.255Z,69.62
2019-02-26T07:35:11.061Z,69.67
2019-02-26T07:37:38.601Z,69.12
2019-02-26T07:40:11.071Z,68.38
2019-02-26T07:42:39.713Z,68.73
2019-02-26T07:45:15.107Z,68.88
2019-02-26T07:47:39.345Z,68.27
2019-02-26T07:50:12.266Z,68.03
2019-02-26T07:52:38.666Z,67.12
2019-02-26T07:55:09.140Z,67.47
2019-02-26T07:57:36.746Z,66.72
2019-02-26T08:00:09.179Z,66.29
2019-02-26T08:02:37.300Z,65.91
2019-02-26T08:05:05.626Z,66.33
2019-02-26T08:07:32.325Z,65.19
2019-02-26T08:09:59.104Z,65.33
2019-02-26T08:12:25.734Z,65.46
2019-02-26T08:14:52.266Z,64.77
2019-02-26T08:17:20.285Z,64.69
2019-02-26T08:19:49.266Z,64.26
2019-02-26T08:22:15.543Z,62.84
2019-02-26T08:24:42.146Z,63.29
2019-02-26T08:27:11.052Z,63.75
2019-02-26T08:29:37.328Z,63.28
2019-02-26T08:32:04.354Z,62.66
2019-02-26T08:34:31.039Z,62.36
2019-02-26T08:36:57.661Z,62.19
2019-02-26T08:39:24.512Z,61.65
2019-02-26T08:41:56.877Z,60.88
2019-02-26T08:44:23.436Z,60.53
2019-02-26T08:46:50.050Z,60.58
2019-02-26T08:49:18.055Z,60.67
2019-02-26T08:51:45.220Z,59.94
2019-02-26T08:54:20.531Z,59.35
2019-02-26T08:56:40.955Z,59.82
2019-02-26T08:59:07.808Z,59.20
2019-02-26T09:01:34.402Z,59.34
2019-02-26T09:04:01.219Z,59.10
2019-02-26T09:06:27.920Z,58.89
2019-02-26T09:08:55.524Z,58.61
2019-02-26T09:11:31.207Z,58.76
2019-02-26T09:13:59.532Z,58.09
2019-02-26T09:16:28.325Z,59.58
2019-02-26T09:18:54.993Z,59.78
2019-02-26T09:21:22.860Z,58.66
2019-02-26T09:23:53.808Z,58.11
2019-02-26T09:26:18.657Z,57.56
2019-02-26T09:28:47.557Z,57.43
2019-02-26T09:31:14.206Z,57.30
2019-02-26T09:33:45.490Z,57.37
2019-02-26T09:36:14.973Z,56.74
2019-02-26T09:38:46.877Z,57.00
2019-02-26T09:41:14.725Z,56.41
2019-02-26T09:43:43.384Z,56.53
2019-02-26T09:46:14.432Z,56.01
2019-02-26T09:48:41.107Z,55.83
2019-02-26T09:51:09.423Z,55.83
2019-02-26T09:53:36.806Z,55.64
2019-02-26T09:56:03.841Z,55.37
2019-02-26T09:58:31.393Z,55.29
2019-02-26T10:00:57.989Z,54.85
2019-02-26T10:03:24.684Z,54.27
2019-02-26T10:05:53.211Z,54.49
2019-02-26T10:08:22.223Z,54.38
2019-02-26T10:10:48.557Z,54.03
2019-02-26T10:13:15.881Z,53.52
2019-02-26T10:15:44.838Z,53.81
2019-02-26T10:18:11.683Z,53.40
2019-02-26T10:20:38.279Z,52.31
2019-02-26T10:23:06.288Z,52.81
2019-02-26T10:25:34.850Z,52.71
2019-02-26T10:28:05.787Z,52.58
2019-02-26T10:30:33.376Z,52.06
2019-02-26T10:33:02.192Z,52.24
2019-02-26T10:36:24.096Z,51.56
2019-02-26T10:38:52.631Z,50.80
2019-02-26T10:41:21.218Z,50.58
2019-02-26T10:43:49.679Z,50.33
2019-02-26T10:46:16.403Z,49.57
2019-02-26T10:48:43.894Z,49.60
2019-02-26T10:51:13.165Z,50.34
2019-02-26T10:54:40.179Z,50.31
2019-02-26T10:57:07.591Z,49.19
2019-02-26T10:59:33.707Z,49.24
2019-02-26T11:02:02.995Z,48.57
2019-02-26T11:04:34.789Z,48.77
2019-02-26T11:06:59.467Z,47.79
2019-02-26T11:09:29.273Z,48.39
2019-02-26T11:11:57.544Z,48.35
2019-02-26T11:14:24.085Z,47.69
2019-02-26T11:16:50.652Z,47.82
2019-02-26T11:19:17.262Z,47.34
2019-02-26T11:21:43.841Z,47.02
2019-02-26T11:24:11.263Z,47.67
2019-02-26T11:26:39.020Z,47.74
2019-02-26T11:29:06.959Z,48.18
2019-02-26T11:31:33.506Z,46.60
2019-02-26T11:34:03.571Z,47.37
2019-02-26T11:36:31.260Z,46.89
2019-02-26T11:39:01.261Z,46.97
2019-02-26T11:41:29.268Z,47.57
2019-02-26T11:43:55.790Z,47.15
2019-02-26T11:46:23.160Z,46.55
2019-02-26T11:48:52.575Z,47.25
2019-02-26T11:51:20.072Z,47.55
2019-02-26T11:53:46.792Z,47.41
2019-02-26T11:56:15.320Z,46.66
2019-02-26T11:58:42.236Z,46.91
2019-02-26T12:01:09.249Z,47.13
2019-02-26T12:03:37.118Z,47.29
2019-02-26T12:06:07.053Z,47.19
2019-02-26T12:08:33.913Z,47.19
2019-02-26T12:11:03.531Z,47.10
2019-02-26T12:13:29.283Z,47.60
2019-02-26T12:15:56.293Z,47.22
2019-02-26T12:18:23.272Z,46.80
2019-02-26T12:20:49.850Z,47.38
2019-02-26T12:23:19.015Z,47.77
2019-02-26T12:25:47.144Z,46.85
2019-02-26T12:28:13.786Z,47.29
2019-02-26T12:30:43.898Z,48.28
2019-02-26T12:33:12.363Z,48.62
2019-02-26T12:35:40.631Z,48.01
2019-02-26T12:38:18.255Z,48.23
2019-02-26T12:40:37.902Z,48.75
2019-02-26T12:43:06.627Z,48.67
2019-02-26T12:45:37.715Z,48.11
2019-02-26T12:48:03.143Z,48.55
2019-02-26T12:50:34.214Z,47.47
2019-02-26T12:53:00.831Z,47.57
2019-02-26T12:55:31.562Z,47.90
2019-02-26T12:57:58.789Z,47.33
2019-02-26T13:00:24.936Z,48.31
2019-02-26T13:02:52.370Z,46.92
2019-02-26T13:05:22.852Z,46.56
2019-02-26T13:07:49.182Z,47.19
2019-02-26T13:10:20.622Z,47.12
2019-02-26T13:12:50.477Z,47.53
2019-02-26T13:15:19.305Z,46.73
2019-02-26T13:17:48.908Z,46.82
2019-02-26T13:20:20.341Z,46.33
2019-02-26T13:22:47.064Z,46.01
2019-02-26T13:25:17.752Z,46.03
2019-02-26T13:27:47.256Z,46.04
2019-02-26T13:30:17.869Z,45.89
2019-02-26T13:32:57.217Z,46.58
2019-02-26T13:35:13.576Z,46.53
2019-02-26T13:37:41.847Z,46.33
2019-02-26T13:40:13.666Z,46.90
2019-02-26T13:42:40.550Z,46.05
2019-02-26T13:45:12.514Z,46.24
2019-02-26T13:47:39.489Z,45.98
2019-02-26T13:50:11.521Z,46.47
2019-02-26T13:52:38.461Z,46.40
2019-02-26T13:55:09.194Z,46.58
2019-02-26T13:57:35.962Z,46.26
2019-02-26T14:00:09.422Z,45.63
2019-02-26T14:02:36.691Z,46.27
2019-02-26T14:05:08.999Z,45.38
2019-02-26T14:07:35.788Z,45.95
2019-02-26T14:10:07.423Z,45.07
2019-02-26T14:12:34.107Z,46.43
2019-02-26T14:15:00.807Z,45.62
2019-02-26T14:17:27.577Z,45.38
2019-02-26T14:19:54.329Z,45.06
2019-02-26T14:22:21.110Z,45.41
2019-02-26T14:24:52.609Z,46.03
2019-02-26T14:27:19.265Z,45.35
2019-02-26T14:30:42.409Z,45.49
2019-02-26T14:33:09.131Z,45.26
2019-02-26T14:35:35.733Z,45.79
2019-02-26T14:38:03.010Z,45.44
2019-02-26T14:40:29.923Z,45.39
2019-02-26T14:42:56.606Z,45.19
2019-02-26T14:45:26.119Z,45.38
2019-02-26T14:47:52.865Z,45.39
2019-02-26T14:50:22.454Z,45.00
2019-02-26T14:52:49.214Z,45.04
2019-02-26T14:55:16.963Z,45.48
2019-02-26T14:57:44.334Z,44.75
2019-02-26T15:00:18.465Z,45.92
2019-02-26T15:02:46.097Z,45.34
2019-02-26T15:05:12.997Z,45.28
2019-02-26T15:07:40.981Z,45.14
2019-02-26T15:10:10.308Z,46.31
2019-02-26T15:12:37.006Z,45.99
2019-02-26T15:15:08.922Z,46.36
2019-02-26T15:17:35.724Z,46.73
2019-02-26T15:20:58.735Z,46.70
2019-02-26T15:23:25.390Z,46.33
2019-02-26T15:25:52.237Z,46.52
2019-02-26T15:28:18.848Z,46.81
2019-02-26T15:30:45.844Z,46.52
2019-02-26T15:33:12.509Z,46.62
2019-02-26T15:35:39.356Z,46.97
2019-02-26T15:38:06.039Z,46.67
2019-02-26T15:40:32.798Z,46.84
2019-02-26T15:43:02.497Z,46.80
2019-02-26T15:45:30.757Z,47.09
2019-02-26T15:47:57.497Z,46.94
2019-02-26T15:50:24.534Z,47.25
2019-02-26T15:52:52.955Z,47.07
2019-02-26T15:55:25.958Z,47.64
2019-02-26T15:57:52.583Z,47.01
2019-02-26T16:00:23.334Z,47.62
2019-02-26T16:02:52.229Z,48.12
2019-02-26T16:05:23.720Z,48.15
2019-02-26T16:07:50.467Z,47.43
2019-02-26T16:10:19.454Z,48.43
2019-02-26T16:12:46.658Z,49.03
2019-02-26T16:15:16.442Z,48.89
2019-02-26T16:17:43.503Z,48.91
2019-02-26T16:20:16.235Z,48.80
2019-02-26T16:22:43.526Z,49.13
2019-02-26T16:25:10.515Z,49.06
2019-02-26T16:27:37.843Z,50.13
2019-02-26T16:30:10.476Z,49.81
2019-02-26T16:32:37.384Z,50.08
2019-02-26T16:35:05.877Z,49.92
2019-02-26T16:37:34.368Z,50.10
2019-02-26T16:40:01.171Z,50.08
2019-02-26T16:42:28.141Z,50.09
2019-02-26T16:44:55.559Z,50.26
2019-02-26T16:47:24.029Z,49.95
2019-02-26T16:49:51.763Z,50.33
2019-02-26T16:52:18.702Z,50.42
2019-02-26T16:54:45.532Z,50.42
2019-02-26T16:57:13.048Z,50.95
2019-02-26T16:59:40.868Z,50.97
2019-02-26T17:02:08.395Z,50.70
2019-02-26T17:04:35.220Z,51.04
2019-02-26T17:07:02.000Z,51.40
2019-02-26T17:09:29.324Z,52.03
2019-02-26T17:11:56.437Z,52.20
2019-02-26T17:14:23.286Z,51.50
2019-02-26T17:16:51.142Z,51.78
2019-02-26T17:19:18.046Z,50.97
2019-02-26T17:22:41.656Z,51.58
2019-02-26T17:25:09.000Z,51.01
2019-02-26T17:27:36.554Z,51.49
2019-02-26T17:30:11.360Z,51.18
2019-02-26T17:32:38.280Z,51.47
2019-02-26T17:35:08.518Z,51.59
2019-02-26T17:37:35.129Z,51.96
2019-02-26T17:40:05.424Z,51.74
2019-02-26T17:42:32.390Z,52.08
2019-02-26T17:44:59.206Z,52.31
2019-02-26T17:47:28.630Z,51.96
2019-02-26T17:49:59.143Z,52.44
2019-02-26T17:52:27.204Z,53.01
2019-02-26T17:54:54.057Z,52.95
2019-02-26T17:57:20.840Z,52.59
2019-02-26T17:59:47.491Z,52.93
2019-02-26T18:02:14.421Z,53.32
2019-02-26T18:04:41.140Z,53.01
2019-02-26T18:07:07.725Z,53.68
2019-02-26T18:09:35.027Z,53.43
2019-02-26T18:12:02.337Z,53.86
2019-02-26T18:14:29.494Z,53.48
2019-02-26T18:16:56.237Z,53.90
2019-02-26T18:19:22.999Z,53.89
2019-02-26T18:21:51.659Z,54.20
2019-02-26T18:24:18.220Z,53.91
2019-02-26T18:26:46.934Z,54.02
2019-02-26T18:29:14.114Z,54.27
2019-02-26T18:31:40.895Z,54.08
2019-02-26T18:34:07.813Z,54.01
2019-02-26T18:36:34.602Z,54.43
2019-02-26T18:39:01.185Z,55.06
2019-02-26T18:41:30.521Z,54.69
2019-02-26T18:43:59.206Z,55.21
2019-02-26T18:46:28.020Z,55.48
2019-02-26T18:48:54.907Z,55.41
2019-02-26T18:51:21.899Z,55.42
2019-02-26T18:53:48.480Z,55.21
2019-02-26T18:56:15.376Z,55.64
2019-02-26T18:58:46.669Z,55.70
2019-02-26T19:01:13.831Z,56.21
2019-02-26T19:03:41.632Z,56.24
2019-02-26T19:06:08.974Z,55.96
2019-02-26T19:08:39.173Z,56.20
2019-02-26T19:11:04.374Z,56.96
2019-02-26T19:13:33.280Z,56.75
2019-02-26T19:16:00.039Z,57.15
2019-02-26T19:18:27.010Z,56.64
2019-02-26T19:20:56.196Z,56.63
2019-02-26T19:23:23.163Z,56.78
2019-02-26T19:25:50.149Z,57.08
2019-02-26T19:28:17.048Z,57.46
2019-02-26T19:30:44.014Z,57.50
2019-02-26T19:33:11.252Z,58.19
2019-02-26T19:35:40.677Z,57.98
2019-02-26T19:38:07.794Z,57.75
2019-02-26T19:40:40.555Z,58.22
2019-02-26T19:43:07.406Z,59.38
2019-02-26T19:45:34.808Z,59.20
2019-02-26T19:48:01.508Z,59.33
2019-02-26T19:50:28.546Z,58.83
2019-02-26T19:52:57.288Z,58.44
2019-02-26T19:55:29.084Z,58.73
2019-02-26T19:57:56.008Z,59.02
2019-02-26T20:00:22.799Z,59.07
2019-02-26T20:02:49.806Z,58.58
2019-02-26T20:05:18.568Z,59.90
2019-02-26T20:07:45.941Z,59.27
2019-02-26T20:10:16.359Z,59.29
2019-02-26T20:12:44.998Z,59.80
2019-02-26T20:15:13.411Z,59.50
2019-02-26T20:17:40.572Z,60.04
2019-02-26T20:20:11.862Z,59.81
2019-02-26T20:22:38.891Z,59.77
2019-02-26T20:25:11.442Z,60.32
2019-02-26T20:27:38.460Z,60.69
2019-02-26T20:30:12.356Z,61.12
2019-02-26T20:32:39.230Z,60.94
2019-02-26T20:35:11.541Z,60.52
2019-02-26T20:37:38.207Z,60.86
2019-02-26T20:40:10.101Z,61.22
2019-02-26T20:42:36.894Z,60.74
2019-02-26T20:45:08.929Z,60.59
2019-02-26T20:47:35.712Z,61.47
2019-02-26T20:50:07.732Z,61.76
2019-02-26T20:52:36.961Z,60.97
2019-02-26T20:55:08.558Z,61.20
2019-02-26T20:57:37.783Z,60.86
2019-02-26T21:00:10.245Z,60.71
2019-02-26T21:02:38.993Z,60.41
2019-02-26T21:05:08.368Z,61.00
2019-02-26T21:07:35.333Z,60.75
2019-02-26T21:10:06.694Z,61.08
2019-02-26T21:12:34.795Z,61.38
2019-02-26T21:15:04.027Z,61.18
2019-02-26T21:17:30.736Z,60.95
2019-02-26T21:19:57.308Z,61.42
2019-02-26T21:22:24.893Z,61.54
2019-02-26T21:24:51.498Z,61.11
2019-02-26T21:27:18.084Z,61.80
2019-02-26T21:29:44.816Z,62.10
2019-02-26T21:32:12.687Z,62.01
2019-02-26T21:34:39.303Z,62.82
2019-02-26T21:37:06.032Z,62.90
2019-02-26T21:39:32.597Z,63.03
2019-02-26T21:41:59.288Z,63.24
2019-02-26T21:44:26.124Z,62.77
2019-02-26T21:46:55.824Z,62.84
2019-02-26T21:49:21.853Z,62.63
2019-02-26T21:51:48.818Z,62.91
2019-02-26T21:54:15.511Z,62.45
2019-02-26T21:56:42.095Z,63.36
2019-02-26T21:59:08.755Z,63.29
2019-02-26T22:01:35.334Z,63.94
2019-02-26T22:04:02.049Z,64.00
2019-02-26T22:06:28.886Z,64.11
2019-02-26T22:08:57.111Z,64.09
2019-02-26T22:11:23.977Z,64.67
2019-02-26T22:13:50.617Z,64.30
2019-02-26T22:16:17.686Z,64.35
2019-02-26T22:18:45.322Z,64.29
2019-02-26T22:21:12.084Z,63.96
2019-02-26T22:23:40.625Z,64.36
2019-02-26T22:26:07.338Z,64.64
2019-02-26T22:28:34.299Z,64.97
2019-02-26T22:31:00.842Z,65.23
2019-02-26T22:33:27.479Z,65.32
2019-02-26T22:35:54.241Z,65.46
2019-02-26T22:38:20.789Z,65.48
2019-02-26T22:40:47.452Z,65.78
2019-02-26T22:43:14.345Z,65.52
2019-02-26T22:45:40.949Z,65.77
2019-02-26T22:49:04.506Z,65.90
2019-02-26T22:51:31.180Z,66.00
2019-02-26T22:53:57.959Z,65.80
2019-02-26T22:56:24.780Z,65.65
2019-02-26T22:58:51.768Z,65.56
2019-02-26T23:01:30.278Z,65.85
2019-02-26T23:03:53.898Z,65.85
2019-02-26T23:06:20.937Z,66.27
2019-02-26T23:08:48.056Z,66.01
2019-02-26T23:11:15.432Z,67.09
2019-02-26T23:13:44.122Z,66.74
2019-02-26T23:16:11.167Z,66.40
2019-02-26T23:18:38.521Z,65.72
2019-02-26T23:21:06.231Z,67.19
2019-02-26T23:23:33.096Z,67.16
2019-02-26T23:26:00.122Z,66.99
2019-02-26T23:28:27.169Z,67.14
2019-02-26T23:30:54.337Z,67.23
2019-02-26T23:33:21.014Z,66.90
2019-02-26T23:35:49.224Z,66.96
2019-02-26T23:38:16.548Z,67.50
2019-02-26T23:40:43.363Z,67.17
2019-02-26T23:43:11.965Z,67.60
2019-02-26T23:45:39.142Z,67.25
2019-02-26T23:48:08.013Z,67.41
2019-02-26T23:50:35.227Z,66.62
2019-02-26T23:53:01.995Z,66.56
2019-02-26T23:56:25.131Z,67.83
2019-02-26T23:58:51.862Z,68.07
